sensor_id;sensor_type;location;lat;lon;timestamp;P1;durP1;ratioP1;P2;durP2;ratioP2
23113;SDS011;11726;50.122;8.832;2022-09-09T00:07:05;3.20;;;2.13;;
23113;SDS011;11726;50.122;8.832;2022-09-09T00:09:42;12.05;;;2.22;;
23113;SDS011;11726;50.122;8.832;2022-09-09T00:12:40;6.60;;;2.15;;
23113;SDS011;11726;50.122;8.832;2022-09-09T00:15:20;6.15;;;2.10;;
23113;SDS011;11726;50.122;8.832;2022-09-09T00:18:03;9.70;;;2.20;;
23113;SDS011;11726;50.122;8.832;2022-09-09T00:20:39;5.00;;;2.20;;
23113;SDS011;11726;50.122;8.832;2022-09-09T00:23:12;5.57;;;1.98;;
23113;SDS011;11726;50.122;8.832;2022-09-09T00:25:58;5.40;;;1.80;;
23113;SDS011;11726;50.122;8.832;2022-09-09T00:28:52;4.88;;;2.10;;
23113;SDS011;11726;50.122;8.832;2022-09-09T00:31:33;4.22;;;1.70;;
23113;SDS011;11726;50.122;8.832;2022-09-09T00:34:11;5.07;;;2.00;;
23113;SDS011;11726;50.122;8.832;2022-09-09T00:36:40;6.60;;;1.70;;
23113;SDS011;11726;50.122;8.832;2022-09-09T00:39:12;4.00;;;1.50;;
23113;SDS011;11726;50.122;8.832;2022-09-09T00:53:02;6.85;;;2.00;;
23113;SDS011;11726;50.122;8.832;2022-09-09T00:58:38;2.53;;;1.50;;
23113;SDS011;11726;50.122;8.832;2022-09-09T01:03:35;7.85;;;1.45;;
23113;SDS011;11726;50.122;8.832;2022-09-09T01:06:17;4.43;;;1.30;;
23113;SDS011;11726;50.122;8.832;2022-09-09T01:11:49;8.02;;;2.63;;
23113;SDS011;11726;50.122;8.832;2022-09-09T01:14:32;10.63;;;2.40;;
23113;SDS011;11726;50.122;8.832;2022-09-09T01:25:07;7.50;;;2.40;;
23113;SDS011;11726;50.122;8.832;2022-09-09T01:27:44;4.20;;;1.80;;
23113;SDS011;11726;50.122;8.832;2022-09-09T01:30:15;4.78;;;1.75;;
23113;SDS011;11726;50.122;8.832;2022-09-09T01:35:12;5.32;;;1.83;;
23113;SDS011;11726;50.122;8.832;2022-09-09T01:38:05;6.40;;;1.70;;
23113;SDS011;11726;50.122;8.832;2022-09-09T01:40:32;4.60;;;1.65;;
23113;SDS011;11726;50.122;8.832;2022-09-09T01:42:59;4.45;;;1.55;;
23113;SDS011;11726;50.122;8.832;2022-09-09T01:45:26;4.38;;;1.63;;
23113;SDS011;11726;50.122;8.832;2022-09-09T01:47:52;4.28;;;1.58;;
23113;SDS011;11726;50.122;8.832;2022-09-09T01:50:19;2.72;;;1.38;;
23113;SDS011;11726;50.122;8.832;2022-09-09T01:52:47;3.50;;;1.40;;
23113;SDS011;11726;50.122;8.832;2022-09-09T01:55:16;3.42;;;1.60;;
23113;SDS011;11726;50.122;8.832;2022-09-09T01:57:57;4.90;;;1.83;;
23113;SDS011;11726;50.122;8.832;2022-09-09T02:01:06;5.13;;;1.60;;
23113;SDS011;11726;50.122;8.832;2022-09-09T02:03:38;6.22;;;1.80;;
23113;SDS011;11726;50.122;8.832;2022-09-09T02:08:57;3.40;;;1.38;;
23113;SDS011;11726;50.122;8.832;2022-09-09T02:11:27;3.05;;;1.55;;
23113;SDS011;11726;50.122;8.832;2022-09-09T02:14:08;2.30;;;1.17;;
23113;SDS011;11726;50.122;8.832;2022-09-09T02:16:59;2.72;;;1.45;;
23113;SDS011;11726;50.122;8.832;2022-09-09T02:19:33;3.00;;;1.60;;
23113;SDS011;11726;50.122;8.832;2022-09-09T02:22:03;3.67;;;1.50;;
23113;SDS011;11726;50.122;8.832;2022-09-09T02:24:31;4.57;;;1.45;;
23113;SDS011;11726;50.122;8.832;2022-09-09T02:27:01;7.68;;;1.50;;
23113;SDS011;11726;50.122;8.832;2022-09-09T02:29:36;8.82;;;1.80;;
23113;SDS011;11726;50.122;8.832;2022-09-09T02:32:09;4.65;;;1.90;;
23113;SDS011;11726;50.122;8.832;2022-09-09T02:34:40;4.72;;;1.80;;
23113;SDS011;11726;50.122;8.832;2022-09-09T02:37:20;3.67;;;1.67;;
23113;SDS011;11726;50.122;8.832;2022-09-09T02:39:51;3.30;;;1.75;;
23113;SDS011;11726;50.122;8.832;2022-09-09T02:42:17;4.10;;;1.70;;
23113;SDS011;11726;50.122;8.832;2022-09-09T02:44:45;3.63;;;1.85;;
23113;SDS011;11726;50.122;8.832;2022-09-09T02:52:46;4.05;;;1.67;;
23113;SDS011;11726;50.122;8.832;2022-09-09T02:55:39;4.93;;;1.80;;
23113;SDS011;11726;50.122;8.832;2022-09-09T02:58:13;5.82;;;1.55;;
23113;SDS011;11726;50.122;8.832;2022-09-09T03:00:44;4.78;;;1.73;;
23113;SDS011;11726;50.122;8.832;2022-09-09T03:03:12;6.32;;;1.80;;
23113;SDS011;11726;50.122;8.832;2022-09-09T03:05:39;5.13;;;1.77;;
23113;SDS011;11726;50.122;8.832;2022-09-09T03:08:06;5.60;;;1.75;;
23113;SDS011;11726;50.122;8.832;2022-09-09T03:10:33;5.18;;;2.05;;
23113;SDS011;11726;50.122;8.832;2022-09-09T03:13:00;5.00;;;2.00;;
23113;SDS011;11726;50.122;8.832;2022-09-09T03:15:27;8.98;;;1.90;;
23113;SDS011;11726;50.122;8.832;2022-09-09T03:17:57;6.43;;;1.60;;
23113;SDS011;11726;50.122;8.832;2022-09-09T03:20:24;3.70;;;1.95;;
23113;SDS011;11726;50.122;8.832;2022-09-09T03:22:55;5.97;;;1.90;;
23113;SDS011;11726;50.122;8.832;2022-09-09T03:25:22;3.78;;;1.50;;
23113;SDS011;11726;50.122;8.832;2022-09-09T03:27:52;4.22;;;1.70;;
23113;SDS011;11726;50.122;8.832;2022-09-09T03:30:25;5.57;;;2.00;;
23113;SDS011;11726;50.122;8.832;2022-09-09T03:32:53;8.43;;;2.20;;
23113;SDS011;11726;50.122;8.832;2022-09-09T03:35:21;5.82;;;2.08;;
23113;SDS011;11726;50.122;8.832;2022-09-09T03:37:47;4.60;;;2.08;;
23113;SDS011;11726;50.122;8.832;2022-09-09T03:40:14;6.20;;;2.00;;
23113;SDS011;11726;50.122;8.832;2022-09-09T03:42:40;4.10;;;1.70;;
23113;SDS011;11726;50.122;8.832;2022-09-09T03:45:08;3.08;;;1.80;;
23113;SDS011;11726;50.122;8.832;2022-09-09T03:47:36;8.65;;;2.13;;
23113;SDS011;11726;50.122;8.832;2022-09-09T03:50:03;3.65;;;2.03;;
23113;SDS011;11726;50.122;8.832;2022-09-09T03:52:35;3.67;;;1.88;;
23113;SDS011;11726;50.122;8.832;2022-09-09T03:55:02;4.38;;;1.90;;
23113;SDS011;11726;50.122;8.832;2022-09-09T03:57:30;4.05;;;2.22;;
23113;SDS011;11726;50.122;8.832;2022-09-09T03:59:57;5.78;;;1.92;;
23113;SDS011;11726;50.122;8.832;2022-09-09T04:02:27;6.50;;;2.03;;
23113;SDS011;11726;50.122;8.832;2022-09-09T04:04:53;6.22;;;2.00;;
23113;SDS011;11726;50.122;8.832;2022-09-09T04:07:20;2.53;;;1.50;;
23113;SDS011;11726;50.122;8.832;2022-09-09T04:09:47;5.80;;;1.90;;
23113;SDS011;11726;50.122;8.832;2022-09-09T04:12:14;4.53;;;1.77;;
23113;SDS011;11726;50.122;8.832;2022-09-09T04:14:40;4.10;;;1.58;;
23113;SDS011;11726;50.122;8.832;2022-09-09T04:17:07;3.78;;;2.00;;
23113;SDS011;11726;50.122;8.832;2022-09-09T04:19:34;4.57;;;1.80;;
23113;SDS011;11726;50.122;8.832;2022-09-09T04:22:00;3.15;;;1.67;;
23113;SDS011;11726;50.122;8.832;2022-09-09T04:24:27;5.97;;;1.85;;
23113;SDS011;11726;50.122;8.832;2022-09-09T04:26:55;4.97;;;1.80;;
23113;SDS011;11726;50.122;8.832;2022-09-09T04:29:21;3.42;;;1.60;;
23113;SDS011;11726;50.122;8.832;2022-09-09T04:31:48;3.28;;;1.70;;
23113;SDS011;11726;50.122;8.832;2022-09-09T04:34:14;5.97;;;1.48;;
23113;SDS011;11726;50.122;8.832;2022-09-09T04:36:41;4.78;;;1.90;;
23113;SDS011;11726;50.122;8.832;2022-09-09T04:39:07;6.90;;;1.88;;
23113;SDS011;11726;50.122;8.832;2022-09-09T04:41:34;4.45;;;1.67;;
23113;SDS011;11726;50.122;8.832;2022-09-09T04:44:01;6.30;;;1.98;;
23113;SDS011;11726;50.122;8.832;2022-09-09T04:46:29;4.78;;;1.50;;
23113;SDS011;11726;50.122;8.832;2022-09-09T04:48:55;4.80;;;1.70;;
23113;SDS011;11726;50.122;8.832;2022-09-09T04:51:22;4.30;;;1.73;;
23113;SDS011;11726;50.122;8.832;2022-09-09T04:53:48;5.93;;;2.03;;
23113;SDS011;11726;50.122;8.832;2022-09-09T04:56:17;3.38;;;2.03;;
23113;SDS011;11726;50.122;8.832;2022-09-09T04:58:44;5.43;;;1.80;;
23113;SDS011;11726;50.122;8.832;2022-09-09T05:01:12;3.45;;;1.80;;
23113;SDS011;11726;50.122;8.832;2022-09-09T05:03:41;5.43;;;1.70;;
23113;SDS011;11726;50.122;8.832;2022-09-09T05:06:09;5.07;;;1.70;;
23113;SDS011;11726;50.122;8.832;2022-09-09T05:08:38;6.63;;;2.08;;
23113;SDS011;11726;50.122;8.832;2022-09-09T05:11:21;5.95;;;1.95;;
23113;SDS011;11726;50.122;8.832;2022-09-09T05:13:53;3.97;;;1.98;;
23113;SDS011;11726;50.122;8.832;2022-09-09T05:16:20;3.75;;;2.08;;
23113;SDS011;11726;50.122;8.832;2022-09-09T05:18:47;4.45;;;2.13;;
23113;SDS011;11726;50.122;8.832;2022-09-09T05:21:15;2.95;;;1.90;;
23113;SDS011;11726;50.122;8.832;2022-09-09T05:23:43;3.38;;;1.90;;
23113;SDS011;11726;50.122;8.832;2022-09-09T05:26:12;3.80;;;1.98;;
23113;SDS011;11726;50.122;8.832;2022-09-09T05:28:43;4.15;;;1.85;;
23113;SDS011;11726;50.122;8.832;2022-09-09T05:31:10;6.50;;;1.90;;
23113;SDS011;11726;50.122;8.832;2022-09-09T05:33:39;2.90;;;1.88;;
23113;SDS011;11726;50.122;8.832;2022-09-09T05:36:10;4.63;;;2.03;;
23113;SDS011;11726;50.122;8.832;2022-09-09T05:38:41;3.42;;;1.75;;
23113;SDS011;11726;50.122;8.832;2022-09-09T05:41:08;3.92;;;1.80;;
23113;SDS011;11726;50.122;8.832;2022-09-09T05:43:37;4.65;;;1.60;;
23113;SDS011;11726;50.122;8.832;2022-09-09T05:48:34;5.57;;;1.98;;
23113;SDS011;11726;50.122;8.832;2022-09-09T05:51:04;6.75;;;1.80;;
23113;SDS011;11726;50.122;8.832;2022-09-09T05:53:32;6.85;;;1.73;;
23113;SDS011;11726;50.122;8.832;2022-09-09T05:56:07;4.30;;;1.65;;
23113;SDS011;11726;50.122;8.832;2022-09-09T05:58:36;4.60;;;1.50;;
23113;SDS011;11726;50.122;8.832;2022-09-09T06:01:07;4.07;;;1.67;;
23113;SDS011;11726;50.122;8.832;2022-09-09T06:03:36;4.03;;;1.83;;
23113;SDS011;11726;50.122;8.832;2022-09-09T06:06:05;3.25;;;1.83;;
23113;SDS011;11726;50.122;8.832;2022-09-09T06:08:34;5.68;;;1.77;;
23113;SDS011;11726;50.122;8.832;2022-09-09T06:11:05;3.90;;;1.50;;
23113;SDS011;11726;50.122;8.832;2022-09-09T06:13:34;6.38;;;2.03;;
23113;SDS011;11726;50.122;8.832;2022-09-09T06:16:03;4.97;;;1.52;;
23113;SDS011;11726;50.122;8.832;2022-09-09T06:18:30;3.72;;;1.55;;
23113;SDS011;11726;50.122;8.832;2022-09-09T06:20:57;4.88;;;1.45;;
23113;SDS011;11726;50.122;8.832;2022-09-09T06:23:27;5.07;;;1.50;;
23113;SDS011;11726;50.122;8.832;2022-09-09T06:26:07;3.17;;;1.38;;
23113;SDS011;11726;50.122;8.832;2022-09-09T06:28:38;3.42;;;1.20;;
23113;SDS011;11726;50.122;8.832;2022-09-09T06:31:06;6.63;;;1.52;;
23113;SDS011;11726;50.122;8.832;2022-09-09T06:33:35;4.20;;;1.20;;
23113;SDS011;11726;50.122;8.832;2022-09-09T06:36:05;5.68;;;1.10;;
23113;SDS011;11726;50.122;8.832;2022-09-09T06:38:52;7.22;;;1.30;;
23113;SDS011;11726;50.122;8.832;2022-09-09T06:41:20;4.78;;;1.13;;
23113;SDS011;11726;50.122;8.832;2022-09-09T06:43:48;4.53;;;1.15;;
23113;SDS011;11726;50.122;8.832;2022-09-09T06:46:16;3.25;;;1.00;;
23113;SDS011;11726;50.122;8.832;2022-09-09T06:48:53;3.50;;;1.10;;
23113;SDS011;11726;50.122;8.832;2022-09-09T06:51:26;2.80;;;1.27;;
23113;SDS011;11726;50.122;8.832;2022-09-09T06:53:57;4.57;;;1.67;;
23113;SDS011;11726;50.122;8.832;2022-09-09T06:56:26;5.18;;;1.58;;
23113;SDS011;11726;50.122;8.832;2022-09-09T06:58:55;3.40;;;1.27;;
23113;SDS011;11726;50.122;8.832;2022-09-09T07:01:24;5.43;;;1.33;;
23113;SDS011;11726;50.122;8.832;2022-09-09T07:03:53;6.07;;;1.38;;
23113;SDS011;11726;50.122;8.832;2022-09-09T07:06:25;6.00;;;1.70;;
23113;SDS011;11726;50.122;8.832;2022-09-09T07:08:54;4.07;;;1.60;;
23113;SDS011;11726;50.122;8.832;2022-09-09T07:11:23;3.70;;;1.17;;
23113;SDS011;11726;50.122;8.832;2022-09-09T07:13:54;4.07;;;1.30;;
23113;SDS011;11726;50.122;8.832;2022-09-09T07:16:23;4.32;;;1.27;;
23113;SDS011;11726;50.122;8.832;2022-09-09T07:18:53;4.00;;;1.20;;
23113;SDS011;11726;50.122;8.832;2022-09-09T07:21:24;4.07;;;1.08;;
23113;SDS011;11726;50.122;8.832;2022-09-09T07:23:52;3.97;;;1.27;;
23113;SDS011;11726;50.122;8.832;2022-09-09T07:26:21;3.72;;;1.42;;
23113;SDS011;11726;50.122;8.832;2022-09-09T07:28:49;5.22;;;1.33;;
23113;SDS011;11726;50.122;8.832;2022-09-09T07:33:44;5.07;;;1.50;;
23113;SDS011;11726;50.122;8.832;2022-09-09T07:36:17;5.05;;;1.30;;
23113;SDS011;11726;50.122;8.832;2022-09-09T07:38:51;5.57;;;1.48;;
23113;SDS011;11726;50.122;8.832;2022-09-09T07:41:20;6.07;;;1.40;;
23113;SDS011;11726;50.122;8.832;2022-09-09T07:43:52;5.40;;;1.20;;
23113;SDS011;11726;50.122;8.832;2022-09-09T07:46:23;5.78;;;1.60;;
23113;SDS011;11726;50.122;8.832;2022-09-09T07:48:52;9.20;;;1.33;;
23113;SDS011;11726;50.122;8.832;2022-09-09T07:51:25;5.35;;;1.27;;
23113;SDS011;11726;50.122;8.832;2022-09-09T07:53:57;5.07;;;1.38;;
23113;SDS011;11726;50.122;8.832;2022-09-09T07:56:29;7.03;;;1.35;;
23113;SDS011;11726;50.122;8.832;2022-09-09T07:58:59;5.22;;;1.38;;
23113;SDS011;11726;50.122;8.832;2022-09-09T08:01:28;5.82;;;1.70;;
23113;SDS011;11726;50.122;8.832;2022-09-09T08:03:58;6.22;;;1.38;;
23113;SDS011;11726;50.122;8.832;2022-09-09T08:06:31;6.32;;;1.38;;
23113;SDS011;11726;50.122;8.832;2022-09-09T08:09:08;5.00;;;1.45;;
23113;SDS011;11726;50.122;8.832;2022-09-09T08:11:36;5.72;;;1.30;;
23113;SDS011;11726;50.122;8.832;2022-09-09T08:14:05;8.25;;;1.67;;
23113;SDS011;11726;50.122;8.832;2022-09-09T08:16:37;5.50;;;1.35;;
23113;SDS011;11726;50.122;8.832;2022-09-09T08:19:08;6.28;;;1.50;;
23113;SDS011;11726;50.122;8.832;2022-09-09T08:21:36;8.05;;;1.48;;
23113;SDS011;11726;50.122;8.832;2022-09-09T08:24:06;7.45;;;1.85;;
23113;SDS011;11726;50.122;8.832;2022-09-09T08:26:35;3.67;;;1.27;;
23113;SDS011;11726;50.122;8.832;2022-09-09T08:29:03;6.15;;;1.50;;
23113;SDS011;11726;50.122;8.832;2022-09-09T08:31:35;5.68;;;1.40;;
23113;SDS011;11726;50.122;8.832;2022-09-09T08:34:04;6.55;;;1.40;;
23113;SDS011;11726;50.122;8.832;2022-09-09T08:36:33;7.45;;;1.65;;
23113;SDS011;11726;50.122;8.832;2022-09-09T08:39:03;6.45;;;1.77;;
23113;SDS011;11726;50.122;8.832;2022-09-09T08:46:49;6.28;;;1.77;;
23113;SDS011;11726;50.122;8.832;2022-09-09T08:52:07;2.72;;;0.90;;
23113;SDS011;11726;50.122;8.832;2022-09-09T08:55:09;9.85;;;2.00;;
23113;SDS011;11726;50.122;8.832;2022-09-09T08:57:55;7.72;;;1.75;;
23113;SDS011;11726;50.122;8.832;2022-09-09T09:00:25;7.15;;;1.50;;
23113;SDS011;11726;50.122;8.832;2022-09-09T09:05:58;7.17;;;1.60;;
23113;SDS011;11726;50.122;8.832;2022-09-09T09:08:40;7.55;;;1.70;;
23113;SDS011;11726;50.122;8.832;2022-09-09T09:11:22;4.50;;;1.58;;
23113;SDS011;11726;50.122;8.832;2022-09-09T09:13:54;6.35;;;2.17;;
23113;SDS011;11726;50.122;8.832;2022-09-09T09:19:27;4.90;;;1.30;;
23113;SDS011;11726;50.122;8.832;2022-09-09T09:21:58;3.70;;;1.35;;
23113;SDS011;11726;50.122;8.832;2022-09-09T09:24:28;7.13;;;1.75;;
23113;SDS011;11726;50.122;8.832;2022-09-09T09:27:16;4.93;;;1.20;;
23113;SDS011;11726;50.122;8.832;2022-09-09T09:29:55;6.38;;;1.42;;
23113;SDS011;11726;50.122;8.832;2022-09-09T09:32:49;2.92;;;0.95;;
23113;SDS011;11726;50.122;8.832;2022-09-09T09:35:22;7.50;;;1.58;;
23113;SDS011;11726;50.122;8.832;2022-09-09T09:37:49;4.18;;;1.40;;
23113;SDS011;11726;50.122;8.832;2022-09-09T09:40:36;5.88;;;1.60;;
23113;SDS011;11726;50.122;8.832;2022-09-09T09:43:03;9.20;;;1.48;;
23113;SDS011;11726;50.122;8.832;2022-09-09T09:45:40;5.85;;;1.25;;
23113;SDS011;11726;50.122;8.832;2022-09-09T09:48:26;6.93;;;1.63;;
23113;SDS011;11726;50.122;8.832;2022-09-09T09:50:57;6.65;;;1.75;;
23113;SDS011;11726;50.122;8.832;2022-09-09T09:53:28;5.20;;;1.23;;
23113;SDS011;11726;50.122;8.832;2022-09-09T09:58:32;7.45;;;1.45;;
23113;SDS011;11726;50.122;8.832;2022-09-09T10:03:54;10.37;;;2.10;;
23113;SDS011;11726;50.122;8.832;2022-09-09T10:06:36;10.13;;;2.08;;
23113;SDS011;11726;50.122;8.832;2022-09-09T10:09:17;8.00;;;1.90;;
23113;SDS011;11726;50.122;8.832;2022-09-09T10:11:53;10.27;;;1.80;;
23113;SDS011;11726;50.122;8.832;2022-09-09T10:14:48;10.93;;;1.70;;
23113;SDS011;11726;50.122;8.832;2022-09-09T10:20:21;5.80;;;1.48;;
23113;SDS011;11726;50.122;8.832;2022-09-09T10:22:52;6.15;;;1.55;;
23113;SDS011;11726;50.122;8.832;2022-09-09T10:31:11;5.90;;;1.48;;
23113;SDS011;11726;50.122;8.832;2022-09-09T10:33:55;5.50;;;1.70;;
23113;SDS011;11726;50.122;8.832;2022-09-09T10:36:33;8.27;;;1.83;;
23113;SDS011;11726;50.122;8.832;2022-09-09T10:39:04;4.65;;;1.42;;
23113;SDS011;11726;50.122;8.832;2022-09-09T10:41:50;6.50;;;1.20;;
23113;SDS011;11726;50.122;8.832;2022-09-09T10:53:45;6.35;;;1.40;;
23113;SDS011;11726;50.122;8.832;2022-09-09T10:56:18;4.28;;;1.13;;
23113;SDS011;11726;50.122;8.832;2022-09-09T10:58:51;5.25;;;1.15;;
23113;SDS011;11726;50.122;8.832;2022-09-09T11:01:32;5.88;;;1.55;;
23113;SDS011;11726;50.122;8.832;2022-09-09T11:04:08;5.85;;;1.42;;
23113;SDS011;11726;50.122;8.832;2022-09-09T11:06:50;8.02;;;1.40;;
23113;SDS011;11726;50.122;8.832;2022-09-09T11:09:22;5.57;;;1.15;;
23113;SDS011;11726;50.122;8.832;2022-09-09T11:11:53;6.22;;;1.30;;
23113;SDS011;11726;50.122;8.832;2022-09-09T11:17:18;8.75;;;2.15;;
23113;SDS011;11726;50.122;8.832;2022-09-09T11:19:53;8.70;;;1.83;;
23113;SDS011;11726;50.122;8.832;2022-09-09T11:22:33;9.45;;;1.80;;
23113;SDS011;11726;50.122;8.832;2022-09-09T11:41:43;10.48;;;2.13;;
23113;SDS011;11726;50.122;8.832;2022-09-09T11:44:11;5.78;;;1.73;;
23113;SDS011;11726;50.122;8.832;2022-09-09T11:46:43;7.10;;;2.00;;
23113;SDS011;11726;50.122;8.832;2022-09-09T11:49:25;5.63;;;1.40;;
23113;SDS011;11726;50.122;8.832;2022-09-09T11:51:55;4.30;;;1.65;;
23113;SDS011;11726;50.122;8.832;2022-09-09T11:56:55;7.78;;;2.15;;
23113;SDS011;11726;50.122;8.832;2022-09-09T11:59:32;8.57;;;1.77;;
23113;SDS011;11726;50.122;8.832;2022-09-09T12:02:00;4.90;;;1.40;;
23113;SDS011;11726;50.122;8.832;2022-09-09T12:04:47;3.88;;;1.17;;
23113;SDS011;11726;50.122;8.832;2022-09-09T12:09:56;6.03;;;1.23;;
23113;SDS011;11726;50.122;8.832;2022-09-09T12:13:15;5.85;;;1.40;;
23113;SDS011;11726;50.122;8.832;2022-09-09T12:15:52;7.20;;;1.70;;
23113;SDS011;11726;50.122;8.832;2022-09-09T12:18:24;5.22;;;1.50;;
23113;SDS011;11726;50.122;8.832;2022-09-09T12:21:06;5.20;;;1.42;;
23113;SDS011;11726;50.122;8.832;2022-09-09T12:34:53;7.55;;;1.30;;
23113;SDS011;11726;50.122;8.832;2022-09-09T12:40:53;5.10;;;1.10;;
23113;SDS011;11726;50.122;8.832;2022-09-09T12:42:49;5.43;;;1.17;;
23113;SDS011;11726;50.122;8.832;2022-09-09T12:52:49;5.90;;;1.40;;
23113;SDS011;11726;50.122;8.832;2022-09-09T12:55:19;6.50;;;1.70;;
23113;SDS011;11726;50.122;8.832;2022-09-09T12:57:51;6.80;;;1.25;;
23113;SDS011;11726;50.122;8.832;2022-09-09T13:00:22;7.07;;;1.10;;
23113;SDS011;11726;50.122;8.832;2022-09-09T13:02:54;5.20;;;1.15;;
23113;SDS011;11726;50.122;8.832;2022-09-09T13:05:23;3.13;;;1.48;;
23113;SDS011;11726;50.122;8.832;2022-09-09T13:08:03;3.97;;;1.15;;
23113;SDS011;11726;50.122;8.832;2022-09-09T13:10:32;4.88;;;1.20;;
23113;SDS011;11726;50.122;8.832;2022-09-09T13:13:23;3.15;;;1.27;;
23113;SDS011;11726;50.122;8.832;2022-09-09T13:15:53;4.15;;;1.50;;
23113;SDS011;11726;50.122;8.832;2022-09-09T13:18:23;3.80;;;1.20;;
23113;SDS011;11726;50.122;8.832;2022-09-09T13:20:53;5.63;;;1.52;;
23113;SDS011;11726;50.122;8.832;2022-09-09T13:23:26;4.47;;;1.40;;
23113;SDS011;11726;50.122;8.832;2022-09-09T13:25:57;7.05;;;1.20;;
23113;SDS011;11726;50.122;8.832;2022-09-09T13:28:26;6.20;;;1.30;;
23113;SDS011;11726;50.122;8.832;2022-09-09T13:31:00;7.80;;;1.35;;
23113;SDS011;11726;50.122;8.832;2022-09-09T13:33:33;4.20;;;1.27;;
23113;SDS011;11726;50.122;8.832;2022-09-09T13:36:06;3.23;;;1.33;;
23113;SDS011;11726;50.122;8.832;2022-09-09T13:38:36;5.38;;;1.48;;
23113;SDS011;11726;50.122;8.832;2022-09-09T13:41:07;3.00;;;1.15;;
23113;SDS011;11726;50.122;8.832;2022-09-09T13:43:36;3.22;;;0.95;;
23113;SDS011;11726;50.122;8.832;2022-09-09T13:49:17;3.25;;;0.90;;
23113;SDS011;11726;50.122;8.832;2022-09-09T13:52:31;4.18;;;1.10;;
23113;SDS011;11726;50.122;8.832;2022-09-09T13:54:37;5.03;;;1.10;;
23113;SDS011;11726;50.122;8.832;2022-09-09T13:57:04;4.82;;;1.00;;
23113;SDS011;11726;50.122;8.832;2022-09-09T13:59:31;3.47;;;0.90;;
23113;SDS011;11726;50.122;8.832;2022-09-09T14:02:18;2.45;;;0.90;;
23113;SDS011;11726;50.122;8.832;2022-09-09T14:04:45;3.25;;;0.70;;
23113;SDS011;11726;50.122;8.832;2022-09-09T14:07:12;1.38;;;0.55;;
23113;SDS011;11726;50.122;8.832;2022-09-09T14:09:40;2.25;;;0.50;;
23113;SDS011;11726;50.122;8.832;2022-09-09T14:12:10;2.47;;;0.70;;
23113;SDS011;11726;50.122;8.832;2022-09-09T14:14:38;2.63;;;0.75;;
23113;SDS011;11726;50.122;8.832;2022-09-09T14:17:04;2.08;;;0.52;;
23113;SDS011;11726;50.122;8.832;2022-09-09T14:19:33;1.35;;;0.40;;
23113;SDS011;11726;50.122;8.832;2022-09-09T14:22:00;1.67;;;0.50;;
23113;SDS011;11726;50.122;8.832;2022-09-09T14:24:27;2.55;;;0.70;;
23113;SDS011;11726;50.122;8.832;2022-09-09T14:26:54;1.70;;;0.50;;
23113;SDS011;11726;50.122;8.832;2022-09-09T14:29:21;1.75;;;0.50;;
23113;SDS011;11726;50.122;8.832;2022-09-09T14:31:47;4.07;;;0.73;;
23113;SDS011;11726;50.122;8.832;2022-09-09T14:34:14;2.10;;;0.50;;
23113;SDS011;11726;50.122;8.832;2022-09-09T14:36:41;4.03;;;0.70;;
23113;SDS011;11726;50.122;8.832;2022-09-09T14:39:07;2.67;;;0.70;;
23113;SDS011;11726;50.122;8.832;2022-09-09T14:41:34;2.00;;;0.77;;
23113;SDS011;11726;50.122;8.832;2022-09-09T14:44:01;4.35;;;0.50;;
23113;SDS011;11726;50.122;8.832;2022-09-09T14:46:27;2.45;;;0.75;;
23113;SDS011;11726;50.122;8.832;2022-09-09T14:48:54;5.75;;;0.82;;
23113;SDS011;11726;50.122;8.832;2022-09-09T14:51:22;1.73;;;0.60;;
23113;SDS011;11726;50.122;8.832;2022-09-09T14:53:51;2.63;;;0.63;;
23113;SDS011;11726;50.122;8.832;2022-09-09T14:56:21;2.72;;;0.50;;
23113;SDS011;11726;50.122;8.832;2022-09-09T14:58:49;2.47;;;0.50;;
23113;SDS011;11726;50.122;8.832;2022-09-09T15:01:18;4.13;;;0.63;;
23113;SDS011;11726;50.122;8.832;2022-09-09T15:03:52;1.10;;;0.47;;
23113;SDS011;11726;50.122;8.832;2022-09-09T15:06:21;2.65;;;0.40;;
23113;SDS011;11726;50.122;8.832;2022-09-09T15:08:50;3.67;;;0.60;;
23113;SDS011;11726;50.122;8.832;2022-09-09T15:11:18;6.40;;;0.57;;
23113;SDS011;11726;50.122;8.832;2022-09-09T15:13:46;1.02;;;0.43;;
23113;SDS011;11726;50.122;8.832;2022-09-09T15:16:16;1.45;;;0.73;;
23113;SDS011;11726;50.122;8.832;2022-09-09T15:18:45;0.70;;;0.30;;
23113;SDS011;11726;50.122;8.832;2022-09-09T15:21:16;3.17;;;0.70;;
23113;SDS011;11726;50.122;8.832;2022-09-09T15:26:14;3.10;;;0.60;;
23113;SDS011;11726;50.122;8.832;2022-09-09T15:28:42;2.33;;;0.45;;
23113;SDS011;11726;50.122;8.832;2022-09-09T15:31:23;1.67;;;0.60;;
23113;SDS011;11726;50.122;8.832;2022-09-09T15:33:52;3.58;;;0.70;;
23113;SDS011;11726;50.122;8.832;2022-09-09T15:38:48;3.53;;;0.68;;
23113;SDS011;11726;50.122;8.832;2022-09-09T15:41:15;2.47;;;0.80;;
23113;SDS011;11726;50.122;8.832;2022-09-09T15:43:44;2.13;;;0.90;;
23113;SDS011;11726;50.122;8.832;2022-09-09T15:46:25;1.85;;;0.70;;
23113;SDS011;11726;50.122;8.832;2022-09-09T15:49:09;3.17;;;0.80;;
23113;SDS011;11726;50.122;8.832;2022-09-09T15:51:37;1.77;;;1.00;;
23113;SDS011;11726;50.122;8.832;2022-09-09T15:54:11;4.45;;;1.00;;
23113;SDS011;11726;50.122;8.832;2022-09-09T15:56:40;4.88;;;1.65;;
23113;SDS011;11726;50.122;8.832;2022-09-09T15:59:07;2.55;;;0.90;;
23113;SDS011;11726;50.122;8.832;2022-09-09T16:01:33;4.75;;;1.00;;
23113;SDS011;11726;50.122;8.832;2022-09-09T16:04:01;2.33;;;0.98;;
23113;SDS011;11726;50.122;8.832;2022-09-09T16:06:30;3.00;;;0.80;;
23113;SDS011;11726;50.122;8.832;2022-09-09T16:08:57;5.75;;;1.13;;
23113;SDS011;11726;50.122;8.832;2022-09-09T16:11:28;4.25;;;0.85;;
23113;SDS011;11726;50.122;8.832;2022-09-09T16:13:57;3.80;;;0.73;;
23113;SDS011;11726;50.122;8.832;2022-09-09T16:16:25;2.00;;;0.82;;
23113;SDS011;11726;50.122;8.832;2022-09-09T16:18:55;2.83;;;1.02;;
23113;SDS011;11726;50.122;8.832;2022-09-09T16:21:30;2.78;;;1.40;;
23113;SDS011;11726;50.122;8.832;2022-09-09T16:26:26;3.17;;;0.85;;
23113;SDS011;11726;50.122;8.832;2022-09-09T16:28:53;2.05;;;0.80;;
23113;SDS011;11726;50.122;8.832;2022-09-09T16:31:21;2.05;;;0.70;;
23113;SDS011;11726;50.122;8.832;2022-09-09T16:33:49;2.22;;;0.77;;
23113;SDS011;11726;50.122;8.832;2022-09-09T16:36:21;4.50;;;0.90;;
23113;SDS011;11726;50.122;8.832;2022-09-09T16:38:55;2.42;;;0.75;;
23113;SDS011;11726;50.122;8.832;2022-09-09T16:43:52;2.63;;;0.90;;
23113;SDS011;11726;50.122;8.832;2022-09-09T16:46:20;2.83;;;0.80;;
23113;SDS011;11726;50.122;8.832;2022-09-09T16:48:48;2.95;;;0.70;;
23113;SDS011;11726;50.122;8.832;2022-09-09T16:51:22;1.83;;;0.77;;
23113;SDS011;11726;50.122;8.832;2022-09-09T16:54:10;3.50;;;0.80;;
23113;SDS011;11726;50.122;8.832;2022-09-09T16:56:38;3.33;;;0.90;;
23113;SDS011;11726;50.122;8.832;2022-09-09T16:59:13;5.88;;;1.17;;
23113;SDS011;11726;50.122;8.832;2022-09-09T17:01:41;2.25;;;0.90;;
23113;SDS011;11726;50.122;8.832;2022-09-09T17:04:10;2.28;;;1.00;;
23113;SDS011;11726;50.122;8.832;2022-09-09T17:06:50;2.13;;;0.90;;
23113;SDS011;11726;50.122;8.832;2022-09-09T17:09:18;3.35;;;0.95;;
23113;SDS011;11726;50.122;8.832;2022-09-09T17:11:46;4.05;;;2.20;;
23113;SDS011;11726;50.122;8.832;2022-09-09T17:14:15;5.05;;;1.20;;
23113;SDS011;11726;50.122;8.832;2022-09-09T17:16:43;5.32;;;1.70;;
23113;SDS011;11726;50.122;8.832;2022-09-09T17:19:10;3.33;;;0.95;;
23113;SDS011;11726;50.122;8.832;2022-09-09T17:21:38;5.15;;;1.83;;
23113;SDS011;11726;50.122;8.832;2022-09-09T17:24:25;5.43;;;1.38;;
23113;SDS011;11726;50.122;8.832;2022-09-09T17:26:53;2.30;;;1.20;;
23113;SDS011;11726;50.122;8.832;2022-09-09T17:29:20;3.38;;;1.05;;
23113;SDS011;11726;50.122;8.832;2022-09-09T17:31:47;1.73;;;0.70;;
23113;SDS011;11726;50.122;8.832;2022-09-09T17:34:14;3.33;;;1.00;;
23113;SDS011;11726;50.122;8.832;2022-09-09T17:36:41;3.97;;;1.40;;
23113;SDS011;11726;50.122;8.832;2022-09-09T17:39:07;3.95;;;1.02;;
23113;SDS011;11726;50.122;8.832;2022-09-09T17:41:35;1.63;;;0.73;;